createdAt,value
2023-03-10T00:01:29.674Z,97796.73
2023-03-10T00:03:59.267Z,97787.41
2023-03-10T00:06:29.880Z,97787.70
2023-03-10T00:08:59.601Z,97784.08
2023-03-10T00:11:28.190Z,97790.54
2023-03-10T00:13:58.010Z,97806.05
2023-03-10T00:16:33.747Z,97810.58
2023-03-10T00:19:04.585Z,97821.63
2023-03-10T00:21:33.684Z,97829.00
2023-03-10T00:24:02.074Z,97839.05
2023-03-10T00:26:31.897Z,97855.92
2023-03-10T00:29:00.366Z,97869.06
2023-03-10T00:31:31.668Z,97875.77
2023-03-10T00:34:00.917Z,97890.45
2023-03-10T00:36:32.069Z,97898.40
2023-03-10T00:39:01.348Z,97901.41
2023-03-10T00:41:31.271Z,97906.80
2023-03-10T00:44:00.803Z,97909.94
2023-03-10T00:46:30.302Z,97909.48
2023-03-10T00:48:59.090Z,97914.55
2023-03-10T00:51:27.783Z,97925.80
2023-03-10T00:53:57.190Z,97928.19
2023-03-10T00:56:26.393Z,97931.08
2023-03-10T00:59:01.528Z,97933.92
2023-03-10T01:01:35.387Z,97935.23
2023-03-10T01:04:06.291Z,97949.78
2023-03-10T01:06:35.064Z,97958.59
2023-03-10T01:09:05.800Z,97963.98
2023-03-10T01:11:42.402Z,97967.08
2023-03-10T01:14:12.909Z,97969.65
2023-03-10T01:16:42.015Z,97976.83
2023-03-10T01:19:10.898Z,97981.52
2023-03-10T01:21:42.148Z,97985.02
2023-03-10T01:24:14.640Z,97986.01
2023-03-10T01:26:44.334Z,97983.50
2023-03-10T01:29:13.952Z,97974.48
2023-03-10T01:31:42.461Z,97966.77
2023-03-10T01:34:12.347Z,97974.02
2023-03-10T01:36:41.603Z,97992.54
2023-03-10T01:39:11.873Z,97998.12
2023-03-10T01:41:42.319Z,97996.52
2023-03-10T01:44:14.569Z,98002.64
2023-03-10T01:46:49.451Z,98013.30
2023-03-10T01:49:28.018Z,98022.95
2023-03-10T01:52:09.504Z,98032.49
2023-03-10T01:54:48.845Z,98041.21
2023-03-10T01:57:19.410Z,98059.27
2023-03-10T01:59:47.754Z,98062.62
2023-03-10T02:02:18.439Z,98054.75
2023-03-10T02:04:50.359Z,98077.00
2023-03-10T02:07:27.358Z,98085.25
2023-03-10T02:09:57.452Z,98088.51
2023-03-10T02:12:26.245Z,98102.52
2023-03-10T02:15:02.256Z,98107.24
2023-03-10T02:17:31.293Z,98114.18
2023-03-10T02:20:28.150Z,98116.86
2023-03-10T02:22:57.247Z,98114.73
2023-03-10T02:25:34.436Z,98107.30
2023-03-10T02:28:04.248Z,98120.29
2023-03-10T02:30:39.182Z,98117.59
2023-03-10T02:33:11.748Z,98112.18
2023-03-10T02:35:40.226Z,98114.78
2023-03-10T02:38:12.209Z,98117.56
2023-03-10T02:40:42.943Z,98118.03
2023-03-10T02:43:18.796Z,98121.67
2023-03-10T02:45:48.751Z,98124.98
2023-03-10T02:48:22.850Z,98129.00
2023-03-10T02:50:52.026Z,98140.23
2023-03-10T02:53:22.971Z,98150.20
2023-03-10T02:55:53.908Z,98150.80
2023-03-10T02:58:23.240Z,98158.34
2023-03-10T03:00:51.922Z,98161.30
2023-03-10T03:03:21.635Z,98173.02
2023-03-10T03:05:50.600Z,98174.29
2023-03-10T03:08:21.435Z,98179.54
2023-03-10T03:10:50.227Z,98182.88
2023-03-10T03:13:18.713Z,98187.69
2023-03-10T03:15:48.314Z,98187.52
2023-03-10T03:18:18.844Z,98191.48
2023-03-10T03:20:47.738Z,98194.77
2023-03-10T03:23:17.753Z,98195.89
2023-03-10T03:25:46.652Z,98201.79
2023-03-10T03:28:17.072Z,98207.02
2023-03-10T03:30:46.791Z,98212.23
2023-03-10T03:33:15.572Z,98223.94
2023-03-10T03:35:45.330Z,98227.52
2023-03-10T03:38:14.173Z,98236.75
2023-03-10T03:40:45.216Z,98236.36
2023-03-10T03:43:15.334Z,98235.95
2023-03-10T03:45:44.138Z,98236.70
2023-03-10T03:48:13.997Z,98235.23
2023-03-10T03:50:42.732Z,98238.94
2023-03-10T03:53:18.896Z,98242.71
2023-03-10T03:55:47.680Z,98241.83
2023-03-10T03:58:16.264Z,98228.61
2023-03-10T04:00:44.974Z,98236.16
2023-03-10T04:03:13.987Z,98237.42
2023-03-10T04:05:44.706Z,98234.67
2023-03-10T04:08:14.098Z,98234.46
2023-03-10T04:10:42.674Z,98233.39
2023-03-10T04:13:12.482Z,98236.98
2023-03-10T04:15:41.323Z,98239.33
2023-03-10T04:18:10.986Z,98242.64
2023-03-10T04:20:39.771Z,98248.04
2023-03-10T04:23:09.686Z,98251.61
2023-03-10T04:25:43.392Z,98256.19
2023-03-10T04:28:12.490Z,98255.58
2023-03-10T04:30:45.573Z,98254.05
2023-03-10T04:33:14.575Z,98248.63
2023-03-10T04:35:44.243Z,98248.02
2023-03-10T04:38:20.654Z,98250.20
2023-03-10T04:40:56.478Z,98247.89
2023-03-10T04:43:27.449Z,98241.05
2023-03-10T04:45:56.799Z,98238.90
2023-03-10T04:48:25.646Z,98247.81
2023-03-10T04:51:03.962Z,98252.75
2023-03-10T04:53:34.766Z,98248.14
2023-03-10T04:56:08.398Z,98251.56
2023-03-10T04:58:38.829Z,98250.31
2023-03-10T05:01:11.045Z,98259.27
2023-03-10T05:03:42.036Z,98265.60
2023-03-10T05:06:15.844Z,98265.25
2023-03-10T05:08:46.477Z,98270.88
2023-03-10T05:11:15.060Z,98273.48
2023-03-10T05:13:43.439Z,98277.83
2023-03-10T05:16:17.718Z,98283.15
2023-03-10T05:18:48.800Z,98293.52
2023-03-10T05:21:22.101Z,98303.59
2023-03-10T05:23:52.425Z,98305.75
2023-03-10T05:26:21.725Z,98305.95
2023-03-10T05:28:50.214Z,98305.41
2023-03-10T05:31:28.945Z,98311.05
2023-03-10T05:34:01.920Z,98318.64
2023-03-10T05:36:30.810Z,98323.05
2023-03-10T05:38:59.294Z,98330.80
2023-03-10T05:41:28.700Z,98334.61
2023-03-10T05:43:58.004Z,98337.55
2023-03-10T05:46:28.781Z,98346.96
2023-03-10T05:48:58.860Z,98342.61
2023-03-10T05:51:28.779Z,98347.17
2023-03-10T05:53:57.674Z,98343.24
2023-03-10T05:56:28.540Z,98347.99
2023-03-10T05:59:02.418Z,98336.38
2023-03-10T06:01:33.155Z,98353.01
2023-03-10T06:04:01.785Z,98351.69
2023-03-10T06:06:31.967Z,98349.63
2023-03-10T06:09:01.263Z,98347.58
2023-03-10T06:11:33.946Z,98341.25
2023-03-10T06:14:02.237Z,98338.02
2023-03-10T06:16:31.980Z,98334.19
2023-03-10T06:19:00.539Z,98331.49
2023-03-10T06:21:29.718Z,98326.52
2023-03-10T06:23:59.636Z,98322.03
2023-03-10T06:26:28.438Z,98315.87
2023-03-10T06:28:57.227Z,98306.12
2023-03-10T06:31:26.258Z,98296.67
2023-03-10T06:36:37.827Z,98301.77
2023-03-10T06:39:07.064Z,98302.33
2023-03-10T06:41:36.017Z,98310.47
2023-03-10T06:44:04.707Z,98321.90
2023-03-10T06:46:33.188Z,98334.87
2023-03-10T06:49:01.786Z,98335.35
2023-03-10T06:51:30.463Z,98332.32
2023-03-10T06:53:58.848Z,98333.63
2023-03-10T06:56:27.328Z,98345.26
2023-03-10T06:58:56.759Z,98368.85
2023-03-10T07:01:28.841Z,98375.25
2023-03-10T07:03:58.010Z,98399.19
2023-03-10T07:06:28.223Z,98410.91
2023-03-10T07:09:16.363Z,98410.98
2023-03-10T07:11:44.748Z,98405.79
2023-03-10T07:14:13.740Z,98402.98
2023-03-10T07:16:42.201Z,98410.27
2023-03-10T07:19:10.808Z,98416.43
2023-03-10T07:21:44.317Z,98400.15
2023-03-10T07:24:13.407Z,98399.31
2023-03-10T07:26:42.502Z,98391.22
2023-03-10T07:29:11.706Z,98382.80
2023-03-10T07:31:41.321Z,98382.17
2023-03-10T07:34:11.222Z,98378.52
2023-03-10T07:36:39.910Z,98380.04
2023-03-10T07:39:08.497Z,98381.89
2023-03-10T07:41:36.987Z,98390.34
2023-03-10T07:44:06.080Z,98396.70
2023-03-10T07:46:34.675Z,98398.13
2023-03-10T07:49:05.203Z,98400.76
2023-03-10T07:51:35.831Z,98405.58
2023-03-10T07:54:04.719Z,98419.85
2023-03-10T07:56:34.126Z,98431.61
2023-03-10T07:59:02.736Z,98429.80
2023-03-10T08:01:36.926Z,98415.98
2023-03-10T08:04:06.661Z,98413.71
2023-03-10T08:06:35.849Z,98404.96
2023-03-10T08:09:04.443Z,98397.05
2023-03-10T08:11:34.850Z,98395.05
2023-03-10T08:14:04.829Z,98388.20
2023-03-10T08:16:33.664Z,98385.33
2023-03-10T08:19:02.348Z,98388.66
2023-03-10T08:21:31.136Z,98378.17
2023-03-10T08:23:59.619Z,98376.80
2023-03-10T08:26:28.406Z,98377.80
2023-03-10T08:28:57.619Z,98379.17
2023-03-10T08:31:26.140Z,98374.64
2023-03-10T08:33:56.929Z,98368.61
2023-03-10T08:36:30.327Z,98368.54
2023-03-10T08:39:00.867Z,98360.06
2023-03-10T08:41:32.208Z,98363.14
2023-03-10T08:44:03.249Z,98363.02
2023-03-10T08:46:32.848Z,98368.46
2023-03-10T08:49:04.414Z,98369.96
2023-03-10T08:51:33.060Z,98369.58
2023-03-10T08:54:01.892Z,98369.23
2023-03-10T08:56:30.480Z,98370.79
2023-03-10T08:59:00.907Z,98368.34
2023-03-10T09:01:35.076Z,98366.69
2023-03-10T09:04:04.562Z,98367.22
2023-03-10T09:06:33.115Z,98370.62
2023-03-10T09:09:01.908Z,98367.02
2023-03-10T09:11:32.871Z,98367.83
2023-03-10T09:14:02.316Z,98370.42
2023-03-10T09:16:33.881Z,98365.83
2023-03-10T09:19:02.813Z,98363.23
2023-03-10T09:21:33.604Z,98356.22
2023-03-10T09:24:02.337Z,98336.39
2023-03-10T09:26:31.529Z,98335.77
2023-03-10T09:29:05.359Z,98350.43
2023-03-10T09:31:36.377Z,98368.02
2023-03-10T09:34:06.330Z,98381.96
2023-03-10T09:36:34.907Z,98381.73
2023-03-10T09:39:03.670Z,98377.90
2023-03-10T09:42:14.856Z,98381.08
2023-03-10T09:45:03.718Z,98390.70
2023-03-10T09:48:00.470Z,98387.36
2023-03-10T09:50:35.605Z,98384.52
2023-03-10T09:53:19.852Z,98375.90
2023-03-10T09:55:49.149Z,98385.21
2023-03-10T09:58:38.105Z,98374.89
2023-03-10T10:01:07.726Z,98355.23
2023-03-10T10:03:51.783Z,98343.27
2023-03-10T10:06:32.033Z,98333.47
2023-03-10T10:09:07.492Z,98338.58
2023-03-10T10:11:37.036Z,98350.20
2023-03-10T10:14:27.742Z,98352.60
2023-03-10T10:17:06.471Z,98339.08
2023-03-10T10:19:37.757Z,98330.46
2023-03-10T10:22:27.442Z,98322.19
2023-03-10T10:25:08.079Z,98326.16
2023-03-10T10:27:37.919Z,98338.42
2023-03-10T10:30:29.208Z,98349.39
2023-03-10T10:33:11.136Z,98347.88
2023-03-10T10:36:01.392Z,98349.41
2023-03-10T10:38:31.761Z,98342.73
2023-03-10T10:41:07.520Z,98343.88
2023-03-10T10:43:44.308Z,98343.39
2023-03-10T10:46:14.259Z,98336.50
2023-03-10T10:48:43.500Z,98333.26
2023-03-10T10:51:21.868Z,98331.60
2023-03-10T10:53:50.710Z,98335.02
2023-03-10T10:56:19.602Z,98331.09
2023-03-10T10:59:04.892Z,98325.20
2023-03-10T11:01:51.199Z,98319.59
2023-03-10T11:04:20.071Z,98322.42
2023-03-10T11:06:49.272Z,98321.77
2023-03-10T11:09:21.848Z,98318.29
2023-03-10T11:12:03.334Z,98318.25
2023-03-10T11:15:14.375Z,98315.74
2023-03-10T11:18:19.456Z,98319.34
2023-03-10T11:21:12.854Z,98319.21
2023-03-10T11:23:44.991Z,98321.02
2023-03-10T11:26:17.787Z,98313.79
2023-03-10T11:29:17.401Z,98310.92
2023-03-10T11:32:00.537Z,98312.27
2023-03-10T11:34:43.227Z,98313.30
2023-03-10T11:37:18.365Z,98315.52
2023-03-10T11:40:07.933Z,98312.02
2023-03-10T11:42:41.444Z,98316.39
2023-03-10T11:45:33.815Z,98313.27
2023-03-10T11:48:05.032Z,98312.14
2023-03-10T11:50:46.314Z,98307.77
2023-03-10T11:53:24.625Z,98303.75
2023-03-10T11:55:53.648Z,98299.75
2023-03-10T11:58:42.889Z,98300.82
2023-03-10T12:01:17.428Z,98294.81
2023-03-10T12:03:54.015Z,98288.77
2023-03-10T12:06:30.148Z,98285.66
2023-03-10T12:08:59.758Z,98287.86
2023-03-10T12:11:28.722Z,98289.30
2023-03-10T12:14:04.603Z,98295.02
2023-03-10T12:16:36.770Z,98291.70
2023-03-10T12:19:06.394Z,98290.67
2023-03-10T12:21:36.198Z,98286.17
2023-03-10T12:24:04.888Z,98290.84
2023-03-10T12:26:39.323Z,98288.48
2023-03-10T12:29:22.838Z,98287.44
2023-03-10T12:31:52.678Z,98283.30
2023-03-10T12:34:22.803Z,98287.62
2023-03-10T12:36:52.175Z,98278.89
2023-03-10T12:39:29.663Z,98274.80
2023-03-10T12:42:00.053Z,98274.13
2023-03-10T12:44:36.357Z,98276.16
2023-03-10T12:47:39.130Z,98280.77
2023-03-10T12:50:42.337Z,98274.05
2023-03-10T12:53:39.087Z,98275.39
2023-03-10T12:56:14.741Z,98283.31
2023-03-10T12:58:47.858Z,98279.58
2023-03-10T13:01:19.527Z,98275.21
2023-03-10T13:03:51.210Z,98273.58
2023-03-10T13:06:22.326Z,98269.97
2023-03-10T13:08:59.445Z,98273.79
2023-03-10T13:11:37.172Z,98266.46
2023-03-10T13:14:17.248Z,98259.63
2023-03-10T13:17:03.522Z,98267.89
2023-03-10T13:19:34.796Z,98260.00
2023-03-10T13:22:05.201Z,98254.49
2023-03-10T13:24:36.610Z,98251.17
2023-03-10T13:27:06.270Z,98244.23
2023-03-10T13:29:34.640Z,98241.11
2023-03-10T13:32:03.758Z,98235.23
2023-03-10T13:34:33.283Z,98224.79
2023-03-10T13:37:06.521Z,98220.94
2023-03-10T13:39:35.224Z,98220.15
2023-03-10T13:42:05.648Z,98218.37
2023-03-10T13:44:38.820Z,98218.94
2023-03-10T13:47:21.254Z,98217.75
2023-03-10T13:49:51.682Z,98209.76
2023-03-10T13:52:24.866Z,98203.84
2023-03-10T13:55:10.664Z,98198.11
2023-03-10T13:57:39.350Z,98195.51
2023-03-10T14:00:16.248Z,98198.59
2023-03-10T14:02:47.901Z,98197.24
2023-03-10T14:05:39.616Z,98200.33
2023-03-10T14:08:25.144Z,98200.00
2023-03-10T14:10:53.474Z,98195.42
2023-03-10T14:13:45.198Z,98193.05
2023-03-10T14:16:13.799Z,98193.23
2023-03-10T14:18:51.382Z,98191.92
2023-03-10T14:21:27.438Z,98191.85
2023-03-10T14:23:57.563Z,98191.80
2023-03-10T14:26:26.657Z,98198.14
2023-03-10T14:28:55.241Z,98197.90
2023-03-10T14:31:24.434Z,98191.70
2023-03-10T14:33:53.028Z,98181.10
2023-03-10T14:36:21.860Z,98176.35
2023-03-10T14:38:52.676Z,98167.15
2023-03-10T14:41:23.948Z,98168.43
2023-03-10T14:43:52.386Z,98164.80
2023-03-10T14:46:21.105Z,98168.11
2023-03-10T14:48:50.572Z,98158.00
2023-03-10T14:51:34.522Z,98150.77
2023-03-10T14:54:03.962Z,98143.20
2023-03-10T14:56:34.350Z,98140.95
2023-03-10T14:59:03.254Z,98134.77
2023-03-10T15:01:31.994Z,98129.09
2023-03-10T15:04:01.242Z,98121.31
2023-03-10T15:06:30.534Z,98121.77
2023-03-10T15:09:05.172Z,98125.63
2023-03-10T15:11:37.664Z,98121.02
2023-03-10T15:14:15.939Z,98121.11
2023-03-10T15:16:51.193Z,98115.16
2023-03-10T15:19:22.644Z,98119.02
2023-03-10T15:21:51.025Z,98121.02
2023-03-10T15:24:19.510Z,98107.69
2023-03-10T15:26:51.596Z,98114.55
2023-03-10T15:29:23.858Z,98111.82
2023-03-10T15:31:53.153Z,98114.84
2023-03-10T15:34:21.539Z,98114.70
2023-03-10T15:36:51.653Z,98116.10
2023-03-10T15:39:30.969Z,98116.51
2023-03-10T15:42:00.696Z,98116.48
2023-03-10T15:44:30.750Z,98116.29
2023-03-10T15:47:00.365Z,98115.95
2023-03-10T15:49:30.252Z,98115.39
2023-03-10T15:51:58.927Z,98114.15
2023-03-10T15:54:27.823Z,98113.84
2023-03-10T15:56:56.633Z,98111.20
2023-03-10T15:59:28.185Z,98113.19
2023-03-10T16:01:57.359Z,98113.02
2023-03-10T16:04:26.057Z,98114.21
2023-03-10T16:06:55.864Z,98116.23
2023-03-10T16:09:24.448Z,98112.77
2023-03-10T16:11:54.368Z,98117.14
2023-03-10T16:14:26.844Z,98109.24
2023-03-10T16:16:58.813Z,98112.16
2023-03-10T16:19:28.212Z,98110.64
2023-03-10T16:21:56.582Z,98097.03
2023-03-10T16:24:25.175Z,98112.27
2023-03-10T16:26:53.550Z,98107.11
2023-03-10T16:29:22.032Z,98107.80
2023-03-10T16:31:50.722Z,98109.92
2023-03-10T16:34:21.246Z,98110.45
2023-03-10T16:36:51.673Z,98110.69
2023-03-10T16:39:20.156Z,98116.73
2023-03-10T16:41:50.078Z,98120.02
2023-03-10T16:44:18.654Z,98118.27
2023-03-10T16:46:47.158Z,98116.38
2023-03-10T16:49:16.851Z,98110.83
2023-03-10T16:51:46.218Z,98111.17
2023-03-10T16:54:17.025Z,98114.32
2023-03-10T16:56:47.938Z,98110.64
2023-03-10T16:59:21.686Z,98113.00
2023-03-10T17:01:50.831Z,98109.36
2023-03-10T17:04:19.825Z,98104.26
2023-03-10T17:06:52.718Z,98103.95
2023-03-10T17:09:21.189Z,98102.86
2023-03-10T17:11:54.815Z,98105.47
2023-03-10T17:14:24.206Z,98104.77
2023-03-10T17:16:54.496Z,98108.85
2023-03-10T17:19:28.906Z,98108.10
2023-03-10T17:21:58.476Z,98104.61
2023-03-10T17:24:27.562Z,98100.35
2023-03-10T17:26:57.164Z,98097.83
2023-03-10T17:29:26.053Z,98097.10
2023-03-10T17:31:59.325Z,98094.78
2023-03-10T17:34:29.692Z,98098.50
2023-03-10T17:36:58.152Z,98096.06
2023-03-10T17:39:27.975Z,98087.45
2023-03-10T17:41:56.453Z,98088.30
2023-03-10T17:44:27.592Z,98087.89
2023-03-10T17:46:58.839Z,98081.42
2023-03-10T17:49:27.526Z,98077.03
2023-03-10T17:51:56.109Z,98082.41
2023-03-10T17:54:24.766Z,98074.92
2023-03-10T17:56:54.412Z,98076.09
2023-03-10T17:59:23.502Z,98074.20
2023-03-10T18:01:53.227Z,98070.77
2023-03-10T18:04:21.805Z,98072.09
2023-03-10T18:06:51.616Z,98076.61
2023-03-10T18:09:40.167Z,98070.20
2023-03-10T18:12:08.750Z,98070.76
2023-03-10T18:14:37.957Z,98065.19
2023-03-10T18:17:06.845Z,98059.30
2023-03-10T18:19:52.532Z,98057.09
2023-03-10T18:22:22.240Z,98054.70
2023-03-10T18:24:51.271Z,98048.58
2023-03-10T18:27:19.720Z,98053.69
2023-03-10T18:29:48.420Z,98055.70
2023-03-10T18:32:18.881Z,98056.13
2023-03-10T18:34:49.167Z,98052.27
2023-03-10T18:37:17.639Z,98049.94
2023-03-10T18:39:51.856Z,98046.19
2023-03-10T18:42:22.099Z,98027.78
2023-03-10T18:44:51.075Z,98033.39
2023-03-10T18:47:20.191Z,98031.98
2023-03-10T18:49:48.860Z,98028.92
2023-03-10T18:54:17.664Z,98023.71
2023-03-10T18:56:51.682Z,98020.66
2023-03-10T18:59:20.260Z,98015.66
2023-03-10T19:01:49.086Z,98015.43
2023-03-10T19:04:17.630Z,98009.55
2023-03-10T19:06:46.216Z,98004.90
2023-03-10T19:09:15.105Z,97997.88
2023-03-10T19:11:43.847Z,97996.84
2023-03-10T19:14:13.197Z,97992.55
2023-03-10T19:16:42.904Z,97991.27
2023-03-10T19:19:12.104Z,97990.45
2023-03-10T19:21:44.071Z,97987.15
2023-03-10T19:24:12.551Z,97986.45
2023-03-10T19:26:41.746Z,97987.31
2023-03-10T19:29:10.228Z,97985.18
2023-03-10T19:31:41.632Z,97980.09
2023-03-10T19:34:10.466Z,97974.29
2023-03-10T19:36:38.849Z,97973.21
2023-03-10T19:39:07.332Z,97964.59
2023-03-10T19:41:36.425Z,97964.23
2023-03-10T19:44:06.646Z,97960.30
2023-03-10T19:46:35.886Z,97955.50
2023-03-10T19:49:06.891Z,97955.30
2023-03-10T19:51:35.685Z,97953.29
2023-03-10T19:54:05.740Z,97951.95
2023-03-10T19:56:37.552Z,97954.09
2023-03-10T19:59:06.753Z,97947.98
2023-03-10T20:01:37.280Z,97948.94
2023-03-10T20:04:05.760Z,97949.90
2023-03-10T20:06:34.453Z,97946.82
2023-03-10T20:09:09.172Z,97943.74
2023-03-10T20:11:39.092Z,97937.81
2023-03-10T20:14:07.994Z,97937.67
2023-03-10T20:16:36.487Z,97942.48
2023-03-10T20:19:05.045Z,97935.20
2023-03-10T20:21:34.147Z,97932.08
2023-03-10T20:24:04.901Z,97928.45
2023-03-10T20:26:34.092Z,97927.54
2023-03-10T20:29:02.460Z,97922.59
2023-03-10T20:31:34.362Z,97921.85
2023-03-10T20:34:04.045Z,97918.32
2023-03-10T20:36:32.405Z,97919.75
2023-03-10T20:39:03.562Z,97919.81
2023-03-10T20:41:31.931Z,97918.38
2023-03-10T20:44:03.083Z,97916.42
2023-03-10T20:46:32.067Z,97908.95
2023-03-10T20:49:00.649Z,97910.86
2023-03-10T20:51:29.128Z,97907.19
2023-03-10T20:53:57.527Z,97907.48
2023-03-10T20:56:26.213Z,97903.27
2023-03-10T20:59:02.388Z,97898.20
2023-03-10T21:01:31.547Z,97895.38
2023-03-10T21:04:00.354Z,97889.13
2023-03-10T21:06:30.185Z,97881.26
2023-03-10T21:09:06.121Z,97878.08
2023-03-10T21:11:37.355Z,97881.77
2023-03-10T21:14:06.554Z,97875.73
2023-03-10T21:16:39.871Z,97868.77
2023-03-10T21:19:13.558Z,97871.85
2023-03-10T21:21:43.165Z,97872.23
2023-03-10T21:24:11.550Z,97870.50
2023-03-10T21:26:45.043Z,97866.81
2023-03-10T21:29:15.168Z,97869.23
2023-03-10T21:31:50.425Z,97869.83
2023-03-10T21:34:20.013Z,97872.83
2023-03-10T21:36:48.394Z,97868.20
2023-03-10T21:39:16.773Z,97865.86
2023-03-10T21:41:45.665Z,97865.46
2023-03-10T21:44:14.043Z,97864.92
2023-03-10T21:46:42.901Z,97855.16
2023-03-10T21:49:13.062Z,97845.20
2023-03-10T21:51:42.255Z,97854.54
2023-03-10T21:54:10.646Z,97853.33
2023-03-10T21:56:40.448Z,97849.91
2023-03-10T21:59:08.953Z,97844.43
2023-03-10T22:01:38.882Z,97841.71
2023-03-10T22:04:07.780Z,97839.58
2023-03-10T22:06:36.213Z,97837.07
2023-03-10T22:09:07.067Z,97835.73
2023-03-10T22:11:36.557Z,97832.55
2023-03-10T22:14:06.578Z,97836.35
2023-03-10T22:16:34.955Z,97834.39
2023-03-10T22:19:09.886Z,97831.52
2023-03-10T22:21:40.112Z,97831.77
2023-03-10T22:24:08.905Z,97817.81
2023-03-10T22:26:40.249Z,97823.35
2023-03-10T22:29:08.632Z,97827.19
2023-03-10T22:31:37.443Z,97826.48
2023-03-10T22:34:05.999Z,97825.61
2023-03-10T22:36:34.480Z,97827.33
2023-03-10T22:39:03.577Z,97823.36
2023-03-10T22:41:32.058Z,97819.88
2023-03-10T22:44:00.643Z,97819.33
2023-03-10T22:46:29.262Z,97811.89
2023-03-10T22:48:58.395Z,97807.09
2023-03-10T22:51:26.909Z,97809.55
2023-03-10T22:53:58.838Z,97814.39
2023-03-10T22:56:27.870Z,97811.73
2023-03-10T22:58:56.143Z,97810.02
2023-03-10T23:01:24.546Z,97806.29
2023-03-10T23:03:53.417Z,97810.36
2023-03-10T23:06:26.518Z,97809.83
2023-03-10T23:08:57.159Z,97813.33
2023-03-10T23:11:25.829Z,97812.20
2023-03-10T23:13:55.782Z,97811.59
2023-03-10T23:16:24.702Z,97811.35
2023-03-10T23:18:53.633Z,97805.17
2023-03-10T23:21:22.116Z,97804.30
2023-03-10T23:23:50.609Z,97805.35
2023-03-10T23:26:19.004Z,97799.11
2023-03-10T23:28:47.768Z,97795.41
2023-03-10T23:31:17.324Z,97789.18
2023-03-10T23:33:45.983Z,97788.45
2023-03-10T23:36:14.630Z,97785.08
2023-03-10T23:38:43.239Z,97783.44
2023-03-10T23:41:12.134Z,97780.66
2023-03-10T23:43:40.813Z,97774.42
2023-03-10T23:46:10.649Z,97771.95
2023-03-10T23:48:39.620Z,97769.77
2023-03-10T23:51:16.770Z,97765.77
2023-03-10T23:53:46.730Z,97761.95
2023-03-10T23:56:15.306Z,97756.21
2023-03-10T23:58:43.691Z,97755.48
